Time;durP1;ratioP1;P1;durP2;ratioP2;P2;SDS_P1;SDS_P2;PMS_P1;PMS_P2;Temp;Humidity;BMP_temperature;BMP_pressure;BME280_temperature;BME280_humidity;BME280_pressure;Samples;Min_cycle;Max_cycle;Signal;HPM_P1;HPM_P2
2023/06/03 00:01:56;;;;;;;5.15;1.20;;;15.00;60.40;;;;;;5084073;28;20036;-85
2023/06/03 00:04:21;;;;;;;5.47;1.60;;;15.00;60.00;;;;;;5093214;28;20055;-85
2023/06/03 00:06:47;;;;;;;4.60;1.27;;;15.00;60.00;;;;;;5094324;28;20048;-85
2023/06/03 00:09:14;;;;;;;3.28;1.10;;;15.00;59.70;;;;;;5094244;28;20043;-85
2023/06/03 00:11:42;;;;;;;3.20;0.80;;;14.90;60.00;;;;;;5093790;28;20523;-85
2023/06/03 00:14:09;;;;;;;5.35;1.23;;;14.80;60.30;;;;;;5094177;28;20113;-85
2023/06/03 00:16:35;;;;;;;3.97;1.30;;;14.80;59.90;;;;;;5093354;28;20067;-85
2023/06/03 00:19:00;;;;;;;3.63;1.30;;;14.80;59.30;;;;;;5112341;28;20089;-85
2023/06/03 00:21:27;;;;;;;3.92;0.73;;;14.80;59.20;;;;;;5093848;28;20040;-86
2023/06/03 00:23:53;;;;;;;4.53;1.40;;;14.70;59.60;;;;;;5077575;28;20051;-85
2023/06/03 00:26:20;;;;;;;2.53;0.82;;;14.70;59.30;;;;;;5077146;28;20077;-85
2023/06/03 00:28:46;;;;;;;4.75;1.23;;;14.70;59.60;;;;;;5093945;28;20052;-85
2023/06/03 00:31:11;;;;;;;2.75;1.02;;;14.60;59.30;;;;;;5076972;28;20047;-85
2023/06/03 00:33:37;;;;;;;6.80;1.27;;;14.50;59.30;;;;;;5093858;28;20097;-85
2023/06/03 00:36:03;;;;;;;7.10;1.33;;;14.50;59.80;;;;;;5094003;28;20040;-85
2023/06/03 00:38:28;;;;;;;3.50;1.15;;;14.50;59.70;;;;;;5093919;28;20051;-85
2023/06/03 00:40:54;;;;;;;2.58;0.90;;;14.50;59.30;;;;;;5093499;28;20090;-85
2023/06/03 00:43:20;;;;;;;4.18;1.27;;;14.40;59.50;;;;;;5093766;28;20047;-85
2023/06/03 00:45:45;;;;;;;5.32;1.63;;;14.40;60.00;;;;;;5093981;28;20122;-85
2023/06/03 00:48:11;;;;;;;3.67;1.40;;;14.40;59.80;;;;;;5093826;28;20073;-85
2023/06/03 00:50:39;;;;;;;4.05;1.17;;;14.40;59.50;;;;;;5076606;28;20035;-85
2023/06/03 00:53:05;;;;;;;3.63;0.88;;;14.40;59.30;;;;;;5094091;28;20161;-85
2023/06/03 00:55:32;;;;;;;3.30;0.82;;;14.30;59.50;;;;;;5093720;28;20100;-85
2023/06/03 00:57:58;;;;;;;3.92;1.20;;;14.20;59.90;;;;;;5093752;28;20039;-85
2023/06/03 01:00:24;;;;;;;3.53;1.20;;;14.20;59.70;;;;;;5093384;28;20044;-85
2023/06/03 01:02:50;;;;;;;4.03;1.33;;;14.20;59.50;;;;;;5093814;28;20036;-85
2023/06/03 01:05:16;;;;;;;4.80;1.02;;;14.20;59.40;;;;;;5093707;28;20512;-85
2023/06/03 01:08:20;;;;;;;2.90;0.70;;;14.10;59.60;;;;;;5093661;28;20112;-85
2023/06/03 01:11:10;;;;;;;3.00;0.88;;;14.00;59.90;;;;;;5080455;28;20052;-85
2023/06/03 01:13:47;;;;;;;5.47;1.20;;;13.90;60.00;;;;;;5093525;28;20054;-85
2023/06/03 01:16:16;;;;;;;1.90;0.70;;;13.90;60.30;;;;;;5093648;28;20047;-85
2023/06/03 01:18:44;;;;;;;3.20;0.80;;;13.80;60.40;;;;;;5093470;28;20035;-85
2023/06/03 01:21:12;;;;;;;3.72;1.10;;;13.80;60.40;;;;;;5093203;28;20497;-85
2023/06/03 01:23:42;;;;;;;7.78;1.60;;;13.70;60.40;;;;;;5111812;28;20054;-85
2023/06/03 01:26:09;;;;;;;4.57;1.20;;;13.80;60.20;;;;;;5093426;28;20055;-85
2023/06/03 01:28:35;;;;;;;7.47;1.30;;;13.80;60.00;;;;;;5095346;28;20164;-85
2023/06/03 01:31:02;;;;;;;2.58;1.00;;;13.80;60.10;;;;;;5096878;28;20084;-85
2023/06/03 01:33:29;;;;;;;2.35;0.90;;;13.70;60.30;;;;;;5097213;28;20047;-85
2023/06/03 01:35:59;;;;;;;4.28;1.25;;;13.60;60.60;;;;;;5097305;28;20093;-85
2023/06/03 01:38:25;;;;;;;4.85;1.15;;;13.50;60.80;;;;;;5097274;28;20110;-85
2023/06/03 01:40:52;;;;;;;2.78;0.75;;;13.60;60.80;;;;;;5114952;28;20039;-85
2023/06/03 01:43:18;;;;;;;3.97;0.77;;;13.50;60.70;;;;;;5097123;28;20039;-85
2023/06/03 01:45:44;;;;;;;2.08;0.95;;;13.40;60.90;;;;;;5097340;28;20051;-85
2023/06/03 01:48:10;;;;;;;5.20;1.00;;;13.40;61.10;;;;;;5080169;28;20514;-85
2023/06/03 01:50:43;;;;;;;4.15;1.20;;;13.40;61.30;;;;;;5096639;28;20512;-85
2023/06/03 01:53:09;;;;;;;3.03;0.90;;;13.40;61.40;;;;;;5080030;28;20496;-85
2023/06/03 01:55:34;;;;;;;1.88;0.90;;;13.30;61.50;;;;;;5114970;28;20047;-85
2023/06/03 01:58:00;;;;;;;3.53;0.80;;;13.30;61.70;;;;;;5096896;28;20108;-85
2023/06/03 02:00:26;;;;;;;4.07;1.40;;;13.20;61.80;;;;;;5096441;28;20405;-85
2023/06/03 02:02:51;;;;;;;3.20;1.10;;;13.20;61.70;;;;;;5115027;28;20050;-85
2023/06/03 02:05:17;;;;;;;1.88;0.85;;;13.20;61.70;;;;;;5096982;28;20046;-85
2023/06/03 02:07:43;;;;;;;3.50;1.10;;;13.10;61.90;;;;;;5096674;28;20044;-85
2023/06/03 02:10:08;;;;;;;4.75;1.60;;;13.10;62.20;;;;;;5096088;28;20047;-85
2023/06/03 02:12:34;;;;;;;3.08;1.05;;;13.10;62.30;;;;;;5114731;28;20378;-85
2023/06/03 02:15:00;;;;;;;5.15;1.00;;;13.10;62.10;;;;;;5096311;28;20519;-85
2023/06/03 02:17:26;;;;;;;3.50;0.95;;;13.00;62.40;;;;;;5114770;28;20043;-85
2023/06/03 02:19:56;;;;;;;5.82;1.50;;;13.00;62.50;;;;;;5079031;28;20035;-85
2023/06/03 02:22:22;;;;;;;3.10;1.00;;;13.00;62.70;;;;;;5096352;28;20508;-85
2023/06/03 02:24:48;;;;;;;5.53;1.60;;;12.90;62.60;;;;;;5096252;28;20043;-85
2023/06/03 02:27:24;;;;;;;2.92;0.93;;;12.90;62.80;;;;;;5079387;28;20074;-85
2023/06/03 02:29:50;;;;;;;3.88;1.00;;;12.90;62.80;;;;;;5095984;28;20458;-85
2023/06/03 02:32:17;;;;;;;2.78;0.90;;;12.80;63.10;;;;;;5096166;28;20036;-85
2023/06/03 02:34:48;;;;;;;3.63;1.20;;;12.70;63.30;;;;;;5096084;28;20084;-85
2023/06/03 02:37:15;;;;;;;4.93;1.50;;;12.70;63.50;;;;;;5096077;28;20039;-84
2023/06/03 02:39:44;;;;;;;3.05;0.93;;;12.70;63.80;;;;;;5094728;28;20043;-85
2023/06/03 02:42:10;;;;;;;4.75;1.27;;;12.70;63.70;;;;;;5095965;28;20115;-85
2023/06/03 02:44:37;;;;;;;3.40;1.20;;;12.70;64.10;;;;;;5114194;28;20150;-85
2023/06/03 02:47:03;;;;;;;5.60;1.00;;;12.60;63.80;;;;;;5096183;28;20109;-85
2023/06/03 02:49:29;;;;;;;4.45;1.08;;;12.50;64.00;;;;;;5095611;28;20058;-85
2023/06/03 02:51:54;;;;;;;3.25;1.00;;;12.40;64.20;;;;;;5095794;28;20517;-85
2023/06/03 02:54:20;;;;;;;5.85;1.55;;;12.40;64.60;;;;;;5095773;28;20065;-85
2023/06/03 02:56:46;;;;;;;6.72;1.80;;;12.40;65.20;;;;;;5095927;28;20091;-85
2023/06/03 02:59:12;;;;;;;3.63;1.00;;;12.30;65.40;;;;;;5095546;28;20088;-85
2023/06/03 03:01:38;;;;;;;4.53;1.10;;;12.20;65.50;;;;;;5095426;28;20031;-85
2023/06/03 03:04:04;;;;;;;1.52;0.70;;;12.00;65.90;;;;;;5095347;28;20493;-85
2023/06/03 03:06:29;;;;;;;4.03;1.17;;;11.90;66.20;;;;;;5107641;28;20039;-85
2023/06/03 03:08:55;;;;;;;4.18;1.20;;;11.80;66.60;;;;;;5112385;28;20130;-85
2023/06/03 03:11:21;;;;;;;3.65;1.20;;;11.60;66.90;;;;;;5112351;28;20509;-85
2023/06/03 03:13:46;;;;;;;4.45;1.08;;;11.60;67.20;;;;;;5113591;28;20039;-85
2023/06/03 03:16:13;;;;;;;4.80;1.25;;;11.50;67.40;;;;;;5112583;28;20481;-85
2023/06/03 03:18:40;;;;;;;7.22;1.08;;;11.40;67.60;;;;;;5112395;28;20466;-85
2023/06/03 03:21:06;;;;;;;4.47;1.00;;;11.40;67.90;;;;;;5111774;28;20508;-85
2023/06/03 03:23:32;;;;;;;5.72;1.40;;;11.30;68.20;;;;;;5112123;28;20039;-85
2023/06/03 03:26:03;;;;;;;2.65;0.80;;;11.30;68.70;;;;;;5111944;28;20046;-85
2023/06/03 03:28:28;;;;;;;7.10;1.25;;;11.30;68.50;;;;;;5112115;28;20154;-85
2023/06/03 03:30:57;;;;;;;5.38;1.13;;;11.20;68.60;;;;;;5111624;28;20122;-85
2023/06/03 03:33:24;;;;;;;3.17;0.90;;;11.00;68.80;;;;;;5113159;28;20036;-85
2023/06/03 03:35:50;;;;;;;3.80;1.10;;;11.00;69.10;;;;;;5111915;28;20039;-85
2023/06/03 03:38:16;;;;;;;4.70;1.25;;;11.00;69.20;;;;;;5111900;28;20065;-85
2023/06/03 03:40:42;;;;;;;2.05;0.75;;;10.90;69.50;;;;;;5094804;28;20040;-85
2023/06/03 03:43:19;;;;;;;2.85;1.00;;;11.00;69.40;;;;;;5111764;28;20040;-85
2023/06/03 03:45:45;;;;;;;2.65;0.90;;;10.90;69.80;;;;;;5111681;28;20508;-85
2023/06/03 03:48:16;;;;;;;5.70;1.00;;;10.90;69.60;;;;;;5111627;28;20127;-85
2023/06/03 03:50:50;;;;;;;4.45;1.02;;;10.90;70.00;;;;;;5111451;28;20485;-85
2023/06/03 03:53:22;;;;;;;6.40;2.05;;;10.90;70.00;;;;;;5111589;28;20043;-85
2023/06/03 03:55:50;;;;;;;4.68;1.15;;;10.90;69.90;;;;;;5111937;28;20039;-85
2023/06/03 03:58:25;;;;;;;3.10;0.95;;;10.90;70.00;;;;;;5111394;28;20039;-85
2023/06/03 04:00:52;;;;;;;3.78;1.00;;;10.90;70.00;;;;;;5111404;28;20047;-85
2023/06/03 04:03:19;;;;;;;4.97;1.10;;;11.00;69.90;;;;;;5111364;28;20046;-85
2023/06/03 04:05:49;;;;;;;3.47;1.20;;;11.00;69.90;;;;;;5111396;28;20378;-84
2023/06/03 04:08:39;;;;;;;4.68;1.20;;;11.00;70.00;;;;;;5111261;28;20054;-85
2023/06/03 04:11:07;;;;;;;2.95;0.90;;;11.10;70.10;;;;;;5110843;28;20039;-85
2023/06/03 04:13:36;;;;;;;3.40;0.98;;;11.10;69.90;;;;;;5111144;28;20123;-85
2023/06/03 04:16:24;;;;;;;1.80;0.80;;;11.20;70.00;;;;;;5111519;28;20035;-85
2023/06/03 04:18:50;;;;;;;2.75;0.93;;;11.20;69.90;;;;;;5111016;28;20047;-85
2023/06/03 04:21:19;;;;;;;6.28;1.20;;;11.30;69.80;;;;;;5093657;28;20450;-85
2023/06/03 04:23:45;;;;;;;5.78;1.60;;;11.30;69.80;;;;;;5111096;28;20047;-85
2023/06/03 04:26:13;;;;;;;5.28;1.25;;;11.40;70.30;;;;;;5112259;28;20038;-85
2023/06/03 04:28:38;;;;;;;3.88;0.98;;;11.50;70.00;;;;;;5111156;28;20035;-84
2023/06/03 04:31:04;;;;;;;3.38;1.25;;;11.40;69.80;;;;;;5111911;28;20042;-85
2023/06/03 04:33:30;;;;;;;2.83;0.90;;;11.50;69.80;;;;;;5110836;28;20079;-85
2023/06/03 04:35:56;;;;;;;6.00;1.08;;;11.50;69.90;;;;;;5110954;28;20042;-85
2023/06/03 04:38:21;;;;;;;3.33;1.30;;;11.50;69.80;;;;;;5111013;28;20076;-85
2023/06/03 04:40:48;;;;;;;3.10;0.95;;;11.60;69.90;;;;;;5110551;28;20144;-85
2023/06/03 04:43:15;;;;;;;6.13;1.13;;;11.60;69.90;;;;;;5112162;28;20043;-84
2023/06/03 04:45:44;;;;;;;2.92;1.00;;;11.60;69.80;;;;;;5112190;28;20051;-85
2023/06/03 04:48:11;;;;;;;4.55;1.25;;;11.70;69.90;;;;;;5110698;28;20051;-85
2023/06/03 04:50:37;;;;;;;3.78;1.08;;;11.70;69.90;;;;;;5110453;28;20046;-85
2023/06/03 04:53:03;;;;;;;3.58;0.95;;;11.70;69.90;;;;;;5110772;28;20420;-85
2023/06/03 04:55:30;;;;;;;6.72;1.30;;;11.80;69.80;;;;;;5110741;28;20047;-85
2023/06/03 04:57:56;;;;;;;5.32;1.30;;;11.80;69.80;;;;;;5111050;28;20044;-85
2023/06/03 05:00:22;;;;;;;3.65;1.23;;;11.80;69.80;;;;;;5110440;28;20393;-85
2023/06/03 05:02:55;;;;;;;4.38;1.17;;;11.90;69.90;;;;;;5111298;28;20036;-85
2023/06/03 05:05:24;;;;;;;2.95;0.93;;;11.90;69.90;;;;;;5116157;28;20069;-85
2023/06/03 05:07:51;;;;;;;3.28;1.00;;;12.00;69.80;;;;;;5114732;28;20114;-85
2023/06/03 05:10:17;;;;;;;4.00;1.20;;;12.00;69.80;;;;;;5115573;28;20428;-85
2023/06/03 05:12:43;;;;;;;6.47;1.38;;;12.10;69.80;;;;;;5114784;28;20508;-85
2023/06/03 05:15:09;;;;;;;4.50;1.35;;;12.10;69.70;;;;;;5114512;28;20071;-85
2023/06/03 05:17:38;;;;;;;3.05;1.08;;;12.20;69.70;;;;;;5097517;28;20035;-85
2023/06/03 05:20:05;;;;;;;5.20;1.33;;;12.20;69.60;;;;;;5114168;28;20111;-85
2023/06/03 05:22:30;;;;;;;4.85;1.00;;;12.30;69.60;;;;;;5114649;28;20085;-85
2023/06/03 05:24:56;;;;;;;5.00;1.50;;;12.30;69.50;;;;;;5114800;28;20055;-85
2023/06/03 05:27:21;;;;;;;1.45;0.77;;;12.50;69.70;;;;;;5114379;28;20055;-85
2023/06/03 05:29:47;;;;;;;4.95;1.50;;;12.50;69.20;;;;;;5113915;28;20456;-85
2023/06/03 05:32:13;;;;;;;5.55;1.05;;;12.60;69.30;;;;;;5114649;28;20130;-85
2023/06/03 05:34:38;;;;;;;2.13;0.98;;;12.70;68.90;;;;;;5115516;28;20550;-85
2023/06/03 05:37:04;;;;;;;3.45;1.15;;;12.70;68.90;;;;;;5097310;28;20039;-85
2023/06/03 05:39:30;;;;;;;3.33;0.90;;;12.70;69.10;;;;;;5113938;28;20044;-85
2023/06/03 05:41:55;;;;;;;3.53;0.80;;;12.80;69.10;;;;;;5114164;28;20043;-85
2023/06/03 05:44:21;;;;;;;2.95;1.00;;;12.80;69.00;;;;;;5114097;28;20043;-85
2023/06/03 05:46:47;;;;;;;4.70;1.73;;;12.90;69.00;;;;;;5114043;28;20118;-85
2023/06/03 05:49:12;;;;;;;6.75;1.10;;;12.90;68.80;;;;;;5113919;28;20408;-85
2023/06/03 05:51:38;;;;;;;5.00;1.50;;;13.00;68.90;;;;;;5114030;28;20075;-85
2023/06/03 05:54:04;;;;;;;4.10;1.35;;;13.10;69.10;;;;;;5114857;28;20044;-85
2023/06/03 05:56:30;;;;;;;5.25;1.20;;;13.20;68.80;;;;;;5113847;28;20054;-85
2023/06/03 05:58:58;;;;;;;2.85;0.77;;;13.20;68.80;;;;;;5114957;28;20036;-85
2023/06/03 06:01:23;;;;;;;4.88;1.58;;;13.30;68.80;;;;;;5113559;28;20051;-85
2023/06/03 06:03:49;;;;;;;3.83;1.10;;;13.40;68.50;;;;;;5113739;28;20043;-85
2023/06/03 06:06:15;;;;;;;3.15;1.42;;;13.50;68.20;;;;;;5113767;28;20050;-85
2023/06/03 06:08:42;;;;;;;5.45;1.38;;;13.60;68.40;;;;;;5113684;28;20114;-84
2023/06/03 06:11:09;;;;;;;5.50;1.40;;;13.60;68.30;;;;;;5096364;28;20042;-85
2023/06/03 06:13:34;;;;;;;4.95;0.90;;;13.80;67.90;;;;;;5113422;28;20070;-85
2023/06/03 06:16:02;;;;;;;5.32;1.30;;;13.80;67.60;;;;;;5113500;28;20481;-85
2023/06/03 06:18:29;;;;;;;3.80;1.02;;;13.90;67.30;;;;;;5096462;28;20045;-85
2023/06/03 06:20:55;;;;;;;8.43;1.10;;;14.00;67.30;;;;;;5114283;28;20504;-85
2023/06/03 06:23:21;;;;;;;5.47;0.98;;;14.00;67.30;;;;;;5113452;28;20039;-85
2023/06/03 06:25:52;;;;;;;4.55;1.15;;;14.10;67.30;;;;;;5111406;28;20048;-85
2023/06/03 06:28:19;;;;;;;6.25;1.30;;;14.20;67.40;;;;;;5111913;28;20043;-85
2023/06/03 06:30:45;;;;;;;4.60;1.40;;;14.30;67.10;;;;;;5112029;28;20043;-85
2023/06/03 06:33:17;;;;;;;3.30;1.25;;;14.40;66.30;;;;;;5112037;28;20043;-86
2023/06/03 06:35:44;;;;;;;6.90;1.05;;;14.50;66.20;;;;;;5114810;27;20088;-86
2023/06/03 06:38:10;;;;;;;4.85;1.00;;;14.50;66.60;;;;;;5115749;27;20507;-86
2023/06/03 06:40:38;;;;;;;3.33;0.90;;;14.60;67.00;;;;;;5133445;27;20042;-85
2023/06/03 06:43:05;;;;;;;2.47;0.80;;;14.70;66.60;;;;;;5095270;28;20409;-85
2023/06/03 06:45:34;;;;;;;4.75;1.30;;;14.80;66.10;;;;;;5095252;28;20079;-86
2023/06/03 06:48:08;;;;;;;4.95;1.60;;;14.90;65.20;;;;;;5078035;28;20523;-86
2023/06/03 06:50:46;;;;;;;4.20;1.40;;;15.10;64.90;;;;;;5094495;28;20051;-85
2023/06/03 06:53:13;;;;;;;5.38;1.33;;;15.20;64.10;;;;;;5094657;28;20061;-86
2023/06/03 06:55:43;;;;;;;2.70;0.93;;;15.30;64.80;;;;;;5094713;28;20067;-86
2023/06/03 06:58:09;;;;;;;6.72;1.23;;;15.30;64.50;;;;;;5094860;28;20481;-86
2023/06/03 07:00:35;;;;;;;5.40;1.30;;;15.30;64.10;;;;;;5094640;28;20039;-86
2023/06/03 07:03:01;;;;;;;5.22;1.40;;;15.50;63.60;;;;;;5095105;28;20050;-86
2023/06/03 07:05:26;;;;;;;4.72;1.40;;;15.60;63.70;;;;;;5113395;28;20039;-85
2023/06/03 07:07:52;;;;;;;3.35;1.00;;;15.60;63.50;;;;;;5094866;28;20507;-86
2023/06/03 07:10:20;;;;;;;3.53;1.40;;;15.70;63.90;;;;;;5094893;28;20043;-86
2023/06/03 07:12:47;;;;;;;5.25;1.42;;;15.80;63.30;;;;;;5095009;28;20470;-86
2023/06/03 07:15:12;;;;;;;5.40;1.20;;;15.90;63.10;;;;;;5094784;28;20067;-85
2023/06/03 07:17:40;;;;;;;4.78;1.35;;;16.00;62.60;;;;;;5112622;28;20373;-86
2023/06/03 07:20:06;;;;;;;6.90;1.40;;;16.10;62.20;;;;;;5094578;28;20121;-86
2023/06/03 07:22:32;;;;;;;7.25;1.42;;;16.20;62.30;;;;;;5095013;28;20039;-86
2023/06/03 07:24:58;;;;;;;2.53;1.05;;;16.20;61.40;;;;;;5094770;28;20046;-86
2023/06/03 07:27:28;;;;;;;2.72;0.90;;;16.20;61.30;;;;;;5094605;28;20044;-86
2023/06/03 07:29:57;;;;;;;3.78;1.05;;;16.20;61.60;;;;;;5094254;28;20048;-86
2023/06/03 07:32:26;;;;;;;3.15;1.02;;;16.30;60.70;;;;;;5094629;28;20075;-86
2023/06/03 07:34:52;;;;;;;4.90;1.15;;;16.40;61.90;;;;;;5094159;28;20040;-86
2023/06/03 07:37:17;;;;;;;6.65;1.08;;;16.50;61.90;;;;;;5112449;28;20114;-86
2023/06/03 07:39:43;;;;;;;4.40;1.00;;;16.60;61.40;;;;;;5093845;28;20071;-86
2023/06/03 07:42:25;;;;;;;4.65;1.10;;;16.60;60.30;;;;;;5094478;28;20044;-86
2023/06/03 07:44:50;;;;;;;7.00;1.67;;;16.60;59.90;;;;;;5094696;28;20058;-86
2023/06/03 07:47:17;;;;;;;4.90;1.20;;;16.70;60.00;;;;;;5094301;28;20488;-86
2023/06/03 07:49:47;;;;;;;4.10;1.10;;;16.80;59.70;;;;;;5112015;28;20435;-86
2023/06/03 07:52:19;;;;;;;4.07;1.25;;;16.90;59.10;;;;;;5093630;28;20063;-86
2023/06/03 07:54:44;;;;;;;4.90;1.05;;;17.00;58.60;;;;;;5094458;28;20082;-86
2023/06/03 07:57:12;;;;;;;5.05;1.20;;;17.00;58.40;;;;;;5112993;28;20090;-86
2023/06/03 07:59:38;;;;;;;3.28;1.13;;;17.00;58.50;;;;;;5112558;28;20062;-86
2023/06/03 08:02:09;;;;;;;4.40;1.05;;;17.10;58.30;;;;;;5094436;28;20484;-86
2023/06/03 08:04:35;;;;;;;5.57;1.20;;;17.10;58.70;;;;;;5094907;27;20047;-86
2023/06/03 08:07:02;;;;;;;4.65;1.27;;;17.20;57.80;;;;;;5111869;27;20045;-86
2023/06/03 08:09:30;;;;;;;3.65;0.90;;;17.30;57.20;;;;;;5114473;27;20050;-86
2023/06/03 08:11:57;;;;;;;5.40;1.40;;;17.40;56.90;;;;;;5114946;27;20058;-86
2023/06/03 08:14:25;;;;;;;6.72;1.30;;;17.50;56.50;;;;;;5133035;27;20127;-86
2023/06/03 08:16:56;;;;;;;4.10;1.20;;;17.60;56.50;;;;;;5114734;27;20071;-86
2023/06/03 08:19:21;;;;;;;4.15;1.00;;;17.70;55.80;;;;;;5114391;27;20046;-86
2023/06/03 08:21:48;;;;;;;4.15;1.17;;;17.70;55.90;;;;;;5114386;27;20039;-86
2023/06/03 08:24:13;;;;;;;3.50;1.08;;;17.80;56.30;;;;;;5114553;28;20560;-86
2023/06/03 08:26:40;;;;;;;4.75;1.10;;;17.80;55.50;;;;;;5132989;27;20047;-86
2023/06/03 08:29:06;;;;;;;4.13;1.20;;;17.90;55.60;;;;;;5114518;27;20046;-85
2023/06/03 08:31:34;;;;;;;3.97;1.00;;;18.00;54.80;;;;;;5114134;27;20039;-86
2023/06/03 08:34:03;;;;;;;2.60;1.00;;;18.20;55.20;;;;;;5114281;27;20047;-86
2023/06/03 08:36:31;;;;;;;6.05;1.35;;;18.30;54.30;;;;;;5114498;27;20095;-86
2023/06/03 08:38:58;;;;;;;4.18;0.95;;;18.40;55.60;;;;;;5113656;28;20075;-86
2023/06/03 08:41:39;;;;;;;2.65;1.08;;;18.40;54.40;;;;;;5114396;28;20035;-86
2023/06/03 08:44:24;;;;;;;5.65;1.30;;;18.50;54.10;;;;;;5114301;28;20039;-86
2023/06/03 08:47:04;;;;;;;3.17;1.20;;;18.50;53.60;;;;;;5114381;28;20122;-86
2023/06/03 08:49:59;;;;;;;5.40;1.08;;;18.50;53.20;;;;;;5097143;28;20046;-86
2023/06/03 08:52:26;;;;;;;6.40;1.90;;;18.60;53.50;;;;;;5114333;28;20043;-86
2023/06/03 08:54:56;;;;;;;3.38;1.15;;;18.50;52.80;;;;;;5132360;28;20043;-86
2023/06/03 08:57:22;;;;;;;5.40;1.15;;;18.50;51.90;;;;;;5114181;28;20045;-86
2023/06/03 08:59:52;;;;;;;4.07;0.90;;;18.50;53.00;;;;;;5132278;28;20081;-86
2023/06/03 09:02:18;;;;;;;4.85;1.17;;;18.40;51.40;;;;;;5114279;28;20442;-85
2023/06/03 09:04:47;;;;;;;5.90;1.10;;;18.30;51.50;;;;;;5106072;28;20035;-86
2023/06/03 09:07:14;;;;;;;3.90;1.20;;;18.30;52.50;;;;;;5093754;28;20054;-86
2023/06/03 09:09:41;;;;;;;5.47;1.75;;;18.20;53.40;;;;;;5093196;28;20088;-86
2023/06/03 09:12:08;;;;;;;4.80;1.35;;;18.30;53.90;;;;;;5093765;28;20048;-86
2023/06/03 09:14:36;;;;;;;5.90;1.95;;;18.30;53.80;;;;;;5111605;28;20043;-86
2023/06/03 09:17:02;;;;;;;5.80;1.30;;;18.40;54.00;;;;;;5076315;28;20042;-86
2023/06/03 09:19:29;;;;;;;2.35;0.93;;;18.40;53.50;;;;;;5093257;28;20036;-86
2023/06/03 09:21:58;;;;;;;5.97;1.20;;;18.30;52.90;;;;;;5111500;28;20416;-86
2023/06/03 09:24:24;;;;;;;5.38;1.00;;;18.30;52.40;;;;;;5093285;28;20505;-86
2023/06/03 09:26:49;;;;;;;5.13;1.08;;;18.30;52.10;;;;;;5093501;28;20055;-86
2023/06/03 09:29:17;;;;;;;4.20;1.10;;;18.30;52.10;;;;;;5093385;28;20051;-85
2023/06/03 09:31:43;;;;;;;6.38;1.15;;;18.30;52.60;;;;;;5085653;28;20484;-85
2023/06/03 09:34:08;;;;;;;4.35;1.08;;;18.30;51.70;;;;;;5102306;28;20047;-86
2023/06/03 09:36:48;;;;;;;4.28;1.30;;;18.30;52.20;;;;;;5113124;28;20492;-85
2023/06/03 09:39:17;;;;;;;5.47;1.30;;;18.30;52.40;;;;;;5113684;28;20046;-86
2023/06/03 09:41:44;;;;;;;4.07;1.20;;;18.30;53.40;;;;;;5112941;28;20043;-86
2023/06/03 09:44:10;;;;;;;4.18;1.10;;;18.50;54.20;;;;;;5113660;28;20039;-86
2023/06/03 09:46:37;;;;;;;5.15;1.23;;;18.70;54.90;;;;;;5113700;28;20047;-86
2023/06/03 09:49:16;;;;;;;4.40;1.10;;;18.90;53.00;;;;;;5113055;27;20043;-86
2023/06/03 09:51:44;;;;;;;4.20;1.30;;;19.00;51.80;;;;;;5117070;27;20053;-86
2023/06/03 09:54:18;;;;;;;5.07;1.30;;;19.10;51.60;;;;;;5117410;27;20050;-86
2023/06/03 09:56:48;;;;;;;4.82;1.70;;;19.20;51.00;;;;;;5117585;27;20438;-86
2023/06/03 09:59:29;;;;;;;5.30;1.48;;;19.30;51.00;;;;;;5117131;27;20050;-86
2023/06/03 10:01:55;;;;;;;4.35;1.20;;;19.50;51.40;;;;;;5117286;27;20535;-86
2023/06/03 10:04:40;;;;;;;4.43;1.15;;;19.50;50.20;;;;;;5100070;27;20079;-86
2023/06/03 10:07:13;;;;;;;4.70;1.05;;;19.60;51.00;;;;;;5117285;27;20046;-86
2023/06/03 10:09:47;;;;;;;6.70;2.00;;;19.60;50.10;;;;;;5116988;27;20050;-86
2023/06/03 10:12:28;;;;;;;4.75;1.20;;;19.60;50.20;;;;;;5117133;27;20117;-86
2023/06/03 10:14:56;;;;;;;5.88;1.52;;;19.60;49.10;;;;;;5116977;27;20442;-85
2023/06/03 10:17:21;;;;;;;6.47;2.10;;;19.70;49.20;;;;;;5117231;27;20039;-86
2023/06/03 10:19:48;;;;;;;3.75;1.10;;;19.70;49.00;;;;;;5134838;27;20047;-86
2023/06/03 10:22:18;;;;;;;5.93;1.45;;;19.80;49.80;;;;;;5117069;27;20553;-86
2023/06/03 10:24:48;;;;;;;4.50;1.30;;;19.90;50.20;;;;;;5117206;27;20043;-86
2023/06/03 10:27:16;;;;;;;2.55;0.90;;;20.00;50.40;;;;;;5116771;27;20039;-86
2023/06/03 10:29:42;;;;;;;4.03;1.08;;;20.00;48.80;;;;;;5134754;27;20058;-86
2023/06/03 10:32:12;;;;;;;4.25;0.95;;;20.10;49.40;;;;;;5116630;27;20411;-86
2023/06/03 10:34:43;;;;;;;4.90;1.13;;;20.20;49.90;;;;;;5116677;27;20523;-85
2023/06/03 10:37:10;;;;;;;4.10;1.00;;;20.30;50.00;;;;;;5099570;27;20041;-86
2023/06/03 10:39:36;;;;;;;3.25;1.00;;;20.40;48.60;;;;;;5116161;27;20039;-86
2023/06/03 10:42:05;;;;;;;3.75;0.90;;;20.40;47.80;;;;;;5116616;27;20039;-86
2023/06/03 10:44:32;;;;;;;3.17;1.05;;;20.50;47.10;;;;;;5116400;27;20047;-86
2023/06/03 10:47:27;;;;;;;6.07;1.10;;;20.50;47.40;;;;;;5134846;27;20082;-86
2023/06/03 10:50:17;;;;;;;4.60;1.20;;;20.60;48.70;;;;;;5115959;27;20042;-86
2023/06/03 10:53:10;;;;;;;5.65;1.45;;;20.70;47.60;;;;;;5099320;27;20092;-86
2023/06/03 10:56:10;;;;;;;3.78;1.10;;;20.80;48.30;;;;;;5116050;27;20118;-86
2023/06/03 10:58:38;;;;;;;5.07;1.70;;;20.80;47.80;;;;;;5116307;27;20391;-86
2023/06/03 11:01:04;;;;;;;6.70;1.80;;;20.90;48.20;;;;;;5115031;27;20043;-86
2023/06/03 11:03:32;;;;;;;2.80;1.17;;;21.00;47.90;;;;;;5090007;27;20027;-86
2023/06/03 11:06:30;;;;;;;5.05;1.30;;;21.00;47.40;;;;;;5103238;28;20374;-86
2023/06/03 11:09:05;;;;;;;4.05;1.00;;;21.10;47.40;;;;;;5102169;27;20048;-86
2023/06/03 11:12:09;;;;;;;4.20;1.10;;;21.20;47.50;;;;;;5086854;27;20035;-86
2023/06/03 11:14:40;;;;;;;3.08;1.05;;;21.30;48.50;;;;;;5075940;27;20079;-86
2023/06/03 11:17:06;;;;;;;4.65;1.33;;;21.40;47.80;;;;;;5104590;27;20087;-86
2023/06/03 11:19:45;;;;;;;6.22;1.95;;;21.50;47.20;;;;;;5105728;27;20039;-86
2023/06/03 11:22:12;;;;;;;3.95;1.20;;;21.60;48.10;;;;;;5106092;27;20046;-86
2023/06/03 11:24:38;;;;;;;4.75;1.20;;;21.70;46.90;;;;;;5103585;28;20095;-86
2023/06/03 11:27:10;;;;;;;4.80;1.00;;;21.80;46.40;;;;;;5095259;28;20122;-86
2023/06/03 11:29:45;;;;;;;4.15;1.17;;;21.80;46.10;;;;;;5077702;27;20047;-86
2023/06/03 11:32:31;;;;;;;3.88;1.17;;;21.80;47.30;;;;;;5104525;27;20066;-87
2023/06/03 11:35:02;;;;;;;3.47;1.38;;;21.90;46.70;;;;;;5088561;27;20042;-86
2023/06/03 11:37:40;;;;;;;5.53;1.10;;;21.90;46.90;;;;;;5105828;27;20042;-86
2023/06/03 11:40:07;;;;;;;8.88;1.35;;;22.10;47.70;;;;;;5102217;27;20293;-86
2023/06/03 11:42:56;;;;;;;5.07;1.25;;;22.20;49.70;;;;;;5100887;27;20040;-86
2023/06/03 11:45:21;;;;;;;5.63;1.15;;;22.30;47.60;;;;;;5119350;27;20043;-86
2023/06/03 11:47:57;;;;;;;5.35;1.30;;;22.30;47.00;;;;;;5082573;28;20055;-86
2023/06/03 11:50:25;;;;;;;4.15;0.90;;;22.40;46.10;;;;;;5091994;28;20434;-86
2023/06/03 11:52:51;;;;;;;4.38;1.20;;;22.50;46.50;;;;;;5093757;28;20176;-86
2023/06/03 11:55:23;;;;;;;9.38;1.67;;;22.50;45.70;;;;;;5093517;28;20176;-86
2023/06/03 11:57:50;;;;;;;5.03;1.27;;;22.50;46.20;;;;;;5093638;28;20088;-86
2023/06/03 12:00:18;;;;;;;6.03;1.20;;;22.60;46.00;;;;;;5093166;28;20044;-86
2023/06/03 12:02:48;;;;;;;5.55;1.13;;;22.70;45.60;;;;;;5093684;28;20043;-87
2023/06/03 12:05:17;;;;;;;4.47;1.10;;;22.70;45.50;;;;;;5111859;28;20097;-86
2023/06/03 12:07:56;;;;;;;4.55;1.00;;;22.80;45.20;;;;;;5093700;28;20043;-86
2023/06/03 12:10:22;;;;;;;5.68;1.20;;;22.90;45.70;;;;;;5092973;28;20092;-86
2023/06/03 12:12:54;;;;;;;4.55;1.17;;;23.00;45.50;;;;;;5111672;28;20460;-86
2023/06/03 12:15:20;;;;;;;5.95;1.38;;;23.10;45.60;;;;;;5093380;28;20044;-86
2023/06/03 12:17:47;;;;;;;5.57;1.20;;;23.20;45.40;;;;;;5093712;28;20047;-86
2023/06/03 12:20:26;;;;;;;5.07;1.10;;;23.30;45.40;;;;;;5076480;28;20540;-86
2023/06/03 12:23:03;;;;;;;3.75;0.90;;;23.50;46.40;;;;;;5093257;28;20083;-86
2023/06/03 12:25:29;;;;;;;3.53;1.20;;;23.50;45.00;;;;;;5093380;28;20048;-86
2023/06/03 12:27:56;;;;;;;5.65;1.20;;;23.60;44.30;;;;;;5111897;28;20043;-86
2023/06/03 12:30:32;;;;;;;4.53;1.00;;;23.70;44.30;;;;;;5093221;28;20074;-86
2023/06/03 12:32:58;;;;;;;4.03;1.00;;;23.80;44.50;;;;;;5098246;27;20040;-86
2023/06/03 12:35:28;;;;;;;4.57;1.00;;;23.80;44.40;;;;;;5101545;28;20126;-86
2023/06/03 12:38:04;;;;;;;4.72;1.10;;;23.90;43.90;;;;;;5117898;27;20040;-86
2023/06/03 12:40:29;;;;;;;3.95;1.05;;;24.00;42.90;;;;;;5119733;27;20051;-86
2023/06/03 12:42:56;;;;;;;4.35;1.25;;;24.00;43.00;;;;;;5104201;28;20232;-86
2023/06/03 12:45:23;;;;;;;3.40;0.98;;;24.10;43.40;;;;;;5122115;28;20050;-86
2023/06/03 12:47:49;;;;;;;4.13;1.10;;;24.20;44.00;;;;;;5101988;28;20043;-86
2023/06/03 12:50:16;;;;;;;4.80;1.20;;;24.40;43.70;;;;;;5120097;28;20039;-86
2023/06/03 12:52:42;;;;;;;4.80;1.05;;;24.40;42.30;;;;;;5076719;28;20069;-86
2023/06/03 12:55:10;;;;;;;3.63;1.23;;;24.50;42.90;;;;;;5092927;28;20043;-86
2023/06/03 12:57:40;;;;;;;4.95;1.45;;;24.50;43.20;;;;;;5092505;28;20085;-86